Strona główna
METAR-TAF:

METAR-TAF

Lotnisko :

Lawrenceville-Vincennes International Airport

Lawrenceville, Illinois, Stany Zjednoczone

Szerokość geograficzna: 38-45-38N, Długość geograficzna: 087-35-56W, wysokość: 131 m

Aktualna obserwacja pogody

Raport powstał 50 minut temu, godzina 09:53 UTC
Wiatr 6 kt od południe
Temperatura 25°C
Wilgotność 89%
Ciśnienie 1013 hPa
Widzialność: 11.3 km
bezchmurnie

METAR: KLWV 210953Z AUTO 19006KT 7SM CLR 25/23 A2992 RMK AO2 SLP125 T02500233 $

czas: 05:43 (10:43 UTC)


TAF: brakujący

Obserwacja i prognoza pogody dla ponad 4000 lotnisk (raport METAR i TAF).

Dostępne stacje oznaczono żółtymi i czerwonymi punktami na mapie.

Najedź kursorem aby zobaczyć nazwę stacji.

Kliknij aby zobaczyć obserwacje i prognozy pogody.

Aby zmienić mapę: kliknij na zielony przycisk z czarnym krzyżykiem, aby powiększyć; na zielony przycisk z myślnikiem, aby pomniejszyć; na zielone strzałki, aby przejść do map sąsiednich.


METAR-TAF: